Genoa, Arkansas
Current Conditions -  °F | °C
As of 1:53 PM on Sunday 23 Nov 2014 (Local Time) from KTXK Reporting Station
Clear Clear  
Wind Chill: 69°   Ceiling: Unl
Heat Index: 69°   Visibility: 10mi
Dew Point: 59°   Wind: 15mph
Humidity: 70%   Direction: 200°SSW
Pressure: 29.38"   Gusts: NA
Location:  33.38°N, 93.91°W
Report Text: KTXK 231953Z 20013KT 10SM CLR 21/15 A2938 RMK AO2 SLP945 T02060150 $
Loading
Personal Weather Stations






























Interactive Weather Map New forecast layout! Learn more

10-Day Weather Forecast

Advertisements
Track Severe Weather on mobile